CYNE

Norway House Airport

Norway House, Manitoba, Canada
METAR CYNE 232200Z AUTO 20010G17KT 9SM M10/M15 A2998 RMK CLD MISG SLP180
Observed Flight Rules
Feb-23 @ 22:00 UTC (33 minutes ago)
Wind Visibility
200° at 10 knots
 Gusting to 17 knots
9 miles
Temperatures Readings
Current -10°C / 14°F
Dewpoint -15°C / 5°F
Humidity 67%
Altimeter 29.98" Hg
Pressure 1018 hPa
Elevation 223
METAR CYNE 232200Z AUTO 20010G17KT 9SM M10/M15 A2998 RMK CLD MISG SLP180
Observed Flight Rules
Feb-23 @ 22:00 UTC
(33 minutes ago)
Wind Visibility
200° at 10 knots
 Gusting to 17 knots
9 miles
Temperature Dewpoint
-10°C / 14°F -15°C / 5°F
Humidity Altimeter Pressure
67% 29.98" Hg 1018 hPa